• Join FlightAware (Why Join?)
  • Login
  • US Flag 
07:42AM EST


 

Airport Tracker/Info


-or-


 

Live Flight TrackerFlight Track Log ✈ EJM826 ✈ 15-Dec-2013 ✈ KIAH - KGYY

Flight Track Log - Related Links

Times and Time Zones

All times are in EST time to prevent confusion due to time zone crossing. See the EJM826 flight status page for this flight to view local times or setup timezone preferences in your user account.

Time Position Orientation Groundspeed Altitude Reporting Facility
EST Latitude Longitude Course Direction KTS MPH feet Rate Location/Type
01:14PM 29.9578 -95.3464 27° Northeast 167 192 1,000  Level Houston Center
01:15PM 29.9667 -95.3744 290° West 150 173 3,500 2,000 Climbing Houston Center
01:16PM 29.9803 -95.3678 23° Northeast 168 193 3,900 2,032 Climbing Houston Center
01:16PM 30.0167 -95.3467 27° Northeast 216 249 5,600 1,905 Climbing Houston Center
01:17PM 30.0306 -95.3364 33° Northeast 198 228 5,900 2,494 Climbing Houston Center
01:18PM 30.1111 -95.2908 26° Northeast 264 304 9,300 2,952 Climbing Houston Center
01:19PM 30.1867 -95.2639 17° North 281 323 12,000 2,371 Climbing Houston Center
01:20PM 30.8146 -94.8551 27° Northeast  Level Estimated
01:20PM 30.2642 -95.2339 18° North 290 334 14,200  Level Houston Center
01:21PM 30.3461 -95.2017 19° North 307 353 16,400 2,129 Climbing Houston Center
01:22PM 30.4425 -95.1633 19° North 323 372 18,600 1,984 Climbing Houston Center
01:23PM 30.5267 -95.1119 28° Northeast 340 391 20,500 1,887 Climbing Houston Center
01:24PM 30.6136 -95.0575 28° Northeast 352 405 22,500 2,081 Climbing Houston Center
01:25PM 30.7022 -95.0031 28° Northeast 359 413 24,800 1,935 Climbing Houston Center
01:26PM 30.7939 -94.9467 28° Northeast 369 425 26,500 1,680 Climbing Houston Center
01:27PM 30.9061 -94.8769 28° Northeast 381 438 28,300 1,488 Climbing Houston Center
01:28PM 31.0039 -94.8153 28° Northeast 396 456 29,600 1,016 Climbing Houston Center
01:29PM 31.1047 -94.7525 28° Northeast 410 472 30,400 919 Climbing Houston Center
01:30PM 31.2067 -94.6867 29° Northeast 429 494 31,500 1,258 Climbing Houston Center
01:31PM 31.3322 -94.5992 31° Northeast 445 512 33,000 726 Climbing Houston Center
01:32PM 31.4408 -94.5239 31° Northeast 452 520 33,000  Level Houston Center
01:33PM 31.5567 -94.4436 31° Northeast 476 548 33,000  Level Houston Center
01:34PM 31.6742 -94.3611 31° Northeast 490 564 33,000  Level Houston Center
01:35PM 31.7994 -94.2900 26° Northeast 504 580 33,000  Level Houston Center
01:36PM 31.9025 -94.2406 22° Northeast 495 570 33,000 55 Level Fort Worth Center
01:37PM 32.0575 -94.1639 23° Northeast 500 575 33,100 726 Climbing Fort Worth Center
01:38PM 32.1833 -94.1017 23° Northeast 493 567 34,500 1,355 Climbing Fort Worth Center
01:39PM 32.3078 -94.0392 23° Northeast 472 543 35,900 1,355 Climbing Fort Worth Center
01:40PM 32.4222 -93.9814 23° Northeast 452 520 37,300 1,355 Climbing Fort Worth Center
01:41PM 32.5344 -93.9253 23° Northeast 440 506 38,700 1,355 Climbing Fort Worth Center
01:42PM 32.6431 -93.8708 23° Northeast 426 490 40,100 1,104 Climbing Fort Worth Center
01:44PM 32.7481 -93.8181 23° Northeast 412 474 41,000 432 Climbing Fort Worth Center
01:45PM 32.8794 -93.7517 23° Northeast 429 494 41,000  Level Fort Worth Center
01:46PM 32.9975 -93.6914 23° Northeast 451 519 41,000  Level Fort Worth Center
01:47PM 33.1119 -93.6331 23° Northeast 464 534 41,000  Level Fort Worth Center
01:48PM 33.2325 -93.5722 23° Northeast 472 543 41,000  Level Fort Worth Center
01:49PM 33.3533 -93.5111 23° Northeast 479 551 41,000  Level Fort Worth Center
01:50PM 33.4975 -93.4367 23° Northeast 475 547 41,000  Level Fort Worth Center
01:51PM 33.6181 -93.3750 23° Northeast 474 545 41,000  Level Fort Worth Center
01:52PM 33.7400 -93.3119 23° Northeast 478 550 41,000  Level Fort Worth Center
01:53PM 33.8622 -93.2489 23° Northeast 478 550 41,000  Level Fort Worth Center
01:54PM 33.9839 -93.1858 23° Northeast 478 550 41,000  Level Fort Worth Center
01:55PM 34.1308 -93.1086 24° Northeast 480 552 41,000  Level Fort Worth Center
01:56PM 34.2519 -93.0458 23° Northeast 474 545 41,000  Level Fort Worth Center
01:57PM 34.3836 -92.9794 23° Northeast 479 551 41,000  Level Fort Worth Center
01:58PM 34.5050 -92.9161 23° Northeast 476 548 41,000  Level Fort Worth Center
01:59PM 34.6256 -92.8525 23° Northeast 474 545 41,000  Level Fort Worth Center
02:00PM 34.7458 -92.7886 24° Northeast 474 545 41,000  Level Fort Worth Center
02:01PM 34.8664 -92.7264 23° Northeast 472 543 41,000  Level Fort Worth Center
02:02PM 35.0294 -92.6378 24° Northeast 471 542 41,000  Level Kansas City Center
02:03PM 35.1481 -92.5739 24° Northeast 471 542 41,000  Level Kansas City Center
02:04PM 35.2644 -92.5119 23° Northeast 465 535 41,000  Level Kansas City Center
02:05PM 35.3803 -92.4500 24° Northeast 461 531 41,000  Level Kansas City Center
02:07PM 35.5456 -92.3617 23° Northeast 462 532 41,000  Level Memphis Center
02:08PM 35.6619 -92.2989 24° Northeast 461 531 41,000  Level Memphis Center
02:09PM 35.7772 -92.2347 24° Northeast 458 527 41,000  Level Memphis Center
02:10PM 35.8942 -92.1719 24° Northeast 459 528 41,000  Level Memphis Center
02:11PM 36.0111 -92.1086 24° Northeast 460 529 41,000  Level Memphis Center
02:12PM 36.1378 -92.0383 24° Northeast 455 524 41,000  Level Memphis Center
02:13PM 36.2656 -91.9675 24° Northeast 457 526 41,000  Level Memphis Center
02:14PM 36.3822 -91.9014 25° Northeast 462 532 41,000  Level Memphis Center
02:15PM 36.5033 -91.8372 23° Northeast 465 535 41,000  Level Memphis Center
02:16PM 36.6219 -91.7717 24° Northeast 465 535 41,000  Level Memphis Center
02:17PM 36.7183 -91.7144 25° Northeast 466 536 41,000  Level Kansas City Center
02:18PM 36.8364 -91.6481 24° Northeast 465 535 41,000  Level Kansas City Center
02:19PM 36.9519 -91.5881 23° Northeast 454 522 41,000  Level Kansas City Center
02:20PM 37.0922 -91.5078 25° Northeast 458 527 41,000  Level Kansas City Center
02:21PM 37.2111 -91.4386 25° Northeast 464 534 41,000  Level Kansas City Center
02:22PM 37.3278 -91.3742 24° Northeast 460 529 41,000  Level Kansas City Center
02:23PM 37.4436 -91.3081 24° Northeast 458 527 41,000  Level Kansas City Center
02:24PM 37.5603 -91.2419 24° Northeast 458 527 41,000  Level Kansas City Center
02:25PM 37.6761 -91.1756 24° Northeast 458 527 41,000  Level Kansas City Center
02:26PM 37.8161 -91.0950 24° Northeast 459 528 41,000  Level Kansas City Center
02:27PM 37.9133 -91.0394 24° Northeast 458 527 41,000  Level Kansas City Center
02:28PM 38.0539 -90.9586 24° Northeast 461 531 41,000  Level Kansas City Center
02:29PM 38.1703 -90.8908 25° Northeast 459 528 41,000  Level Kansas City Center
02:30PM 38.2872 -90.8233 24° Northeast 460 529 41,000  Level Kansas City Center
02:31PM 38.4044 -90.7542 25° Northeast 462 532 41,000  Level Kansas City Center
02:32PM 38.5406 -90.6731 25° Northeast 461 531 41,000  Level Kansas City Center
02:33PM 38.6581 -90.6047 24° Northeast 462 532 41,000  Level Kansas City Center
02:34PM 38.7764 -90.5353 25° Northeast 464 534 41,000  Level Kansas City Center
02:35PM 38.8908 -90.4603 27° Northeast 462 532 41,000  Level Kansas City Center
02:36PM 39.0122 -90.3603 33° Northeast 469 540 41,000 -242 Level Kansas City Center
02:38PM 39.1236 -90.2692 32° Northeast 473 544 40,500 -1,548 Descending Kansas City Center
02:39PM 39.2342 -90.1786 32° Northeast 471 542 37,800 -2,516 Descending Kansas City Center
02:40PM 39.3433 -90.0892 32° Northeast 466 536 35,300 -2,256 Descending Kansas City Center
02:41PM 39.4456 -90.0044 33° Northeast 443 510 33,100 -1,104 Descending Kansas City Center
02:42PM 39.5475 -89.9194 33° Northeast 437 503 33,000 -48 Descending Kansas City Center
02:43PM 39.6522 -89.8333 32° Northeast 443 510 33,000 -885 Level Kansas City Center
02:44PM 39.7744 -89.7300 33° Northeast 443 510 31,200 -1,902 Descending Kansas City Center
02:45PM 39.8711 -89.6489 33° Northeast 424 488 29,100 -1,073 Descending Kansas City Center
02:46PM 39.9675 -89.5572 36° Northeast 425 489 29,000 -48 Descending Kansas City Center
02:47PM 40.0689 -89.4608 36° Northeast 442 509 29,000 -104 Level Kansas City Center
02:48PM 40.1722 -89.3622 36° Northeast 464 534 28,800 -1,286 Descending Chicago Center
02:49PM 40.2736 -89.2647 36° Northeast 457 526 26,600 -2,081 Descending Chicago Center
02:50PM 40.3739 -89.1686 36° Northeast 451 519 24,500 -2,081 Descending Chicago Center
02:51PM 40.4714 -89.0742 36° Northeast 441 507 22,300 -1,790 Descending Chicago Center
02:52PM 40.5678 -88.9817 36° Northeast 433 498 20,800 -2,323 Descending Chicago Center
02:53PM 40.6839 -88.8694 36° Northeast 432 497 17,500 -2,758 Descending Chicago Center
02:54PM 40.7675 -88.7875 37° Northeast 402 463 15,100 -1,824 Descending Chicago Center
02:55PM 40.8472 -88.7189 33° Northeast 346 398 13,700 -1,258 Descending Chicago Center
02:56PM 40.9258 -88.6731 24° Northeast 314 361 12,500 -1,317 Descending Chicago Center
02:57PM 41.0233 -88.6178 23° Northeast 315 362 11,000 -1,161 Descending Chicago Center
02:58PM 41.1014 -88.5736 23° Northeast 309 356 10,100 -435 Descending Chicago Center
02:59PM 41.1744 -88.5322 23° Northeast 293 337 10,100 -435 Level Chicago Center
03:00PM 41.2472 -88.4903 23° Northeast 284 327 9,200 -1,258 Descending Chicago Center
03:01PM 41.3247 -88.4456 23° Northeast 295 339 7,500 -1,500 Descending Chicago Center
03:02PM 41.4011 -88.4014 23° Northeast 298 343 6,100 -1,171 Descending Chicago Center
03:03PM 41.4433 -88.3222 55° Northeast 293 337 5,100 -537 Descending Chicago Center
03:04PM 41.4550 -88.1936 83° East 291 335 5,000 -48 Descending Chicago Center
03:05PM 41.4656 -88.0856 83° East 289 333 5,000 -48 Level Chicago Center
03:06PM 41.4778 -87.9744 82° East 290 334 4,900  Descending Chicago Center
03:07PM 41.4819 -87.8636 87° East 294 338 5,000 -194 Climbing Chicago Center
03:08PM 41.4811 -87.7547 91° East 294 338 4,500 -683 Descending Chicago Center
03:09PM 41.4806 -87.6464 90° East 294 338 3,600 -732 Descending Chicago Center
03:10PM 41.4867 -87.5442 85° East 285 328 3,000 -242 Descending Chicago Center
03:11PM 41.5158 -87.4544 67° East 273 314 3,100  Climbing Chicago Center
03:12PM 41.5556 -87.3850 53° Northeast 246 283 3,000 -878 Descending Chicago Center
03:13PM 41.5975 -87.3761 North 180 207 1,300 -1,672 Descending Chicago Center
03:15PM 41.6000 -87.4000 90° East  Level FlightAware Approximate
03:22PM 41.6163 -87.4128 90° East  Level Estimated